createdAt,value
2018-10-03T00:00:36.408Z,62.80
2018-10-03T00:03:04.879Z,63.10
2018-10-03T00:05:33.525Z,63.40
2018-10-03T00:08:01.980Z,63.40
2018-10-03T00:10:30.452Z,63.90
2018-10-03T00:12:58.904Z,64.10
2018-10-03T00:15:27.297Z,63.70
2018-10-03T00:17:55.744Z,64.10
2018-10-03T00:20:24.100Z,64.30
2018-10-03T00:22:52.483Z,64.40
2018-10-03T00:25:20.908Z,64.60
2018-10-03T00:27:49.383Z,64.60
2018-10-03T00:30:17.887Z,64.70
2018-10-03T00:32:46.295Z,64.90
2018-10-03T00:35:14.856Z,64.70
2018-10-03T00:37:43.353Z,65.00
2018-10-03T00:40:11.844Z,64.80
2018-10-03T00:42:40.295Z,63.90
2018-10-03T00:45:08.697Z,64.00
2018-10-03T00:47:36.957Z,64.50
2018-10-03T00:50:05.421Z,64.30
2018-10-03T00:52:33.821Z,64.70
2018-10-03T00:55:02.240Z,64.70
2018-10-03T00:57:30.509Z,64.50
2018-10-03T00:59:58.803Z,64.60
2018-10-03T01:02:27.437Z,64.50
2018-10-03T01:04:55.749Z,64.30
2018-10-03T01:07:24.103Z,64.10
2018-10-03T01:09:52.404Z,64.10
2018-10-03T01:12:20.772Z,63.00
2018-10-03T01:14:49.203Z,63.80
2018-10-03T01:17:17.590Z,62.10
2018-10-03T01:19:46.148Z,60.70
2018-10-03T01:22:14.651Z,60.00
2018-10-03T01:24:43.167Z,59.90
2018-10-03T01:27:11.619Z,59.50
2018-10-03T01:29:40.155Z,59.20
2018-10-03T01:32:08.672Z,58.80
2018-10-03T01:34:37.168Z,58.20
2018-10-03T01:37:05.711Z,57.70
2018-10-03T01:39:34.231Z,58.40
2018-10-03T01:42:02.775Z,58.40
2018-10-03T01:44:31.501Z,58.50
2018-10-03T01:47:00.055Z,57.70
2018-10-03T01:49:28.535Z,57.60
2018-10-03T01:51:57.016Z,58.90
2018-10-03T01:54:25.616Z,60.30
2018-10-03T01:56:54.799Z,59.40
2018-10-03T01:59:23.335Z,60.30
2018-10-03T02:01:51.869Z,60.50
2018-10-03T02:04:20.387Z,61.90
2018-10-03T02:06:48.962Z,62.00
2018-10-03T02:09:17.486Z,62.50
2018-10-03T02:11:46.073Z,63.40
2018-10-03T02:14:14.556Z,62.90
2018-10-03T02:16:43.079Z,62.30
2018-10-03T02:19:11.625Z,63.00
2018-10-03T02:21:40.254Z,63.10
2018-10-03T02:24:08.784Z,64.10
2018-10-03T02:26:37.398Z,64.40
2018-10-03T02:29:06.023Z,63.80
2018-10-03T02:31:34.543Z,62.90
2018-10-03T02:34:03.007Z,62.80
2018-10-03T02:36:31.565Z,62.50
2018-10-03T02:39:00.179Z,64.10
2018-10-03T02:41:28.635Z,64.50
2018-10-03T02:43:57.119Z,64.40
2018-10-03T02:46:25.747Z,64.70
2018-10-03T02:48:54.240Z,65.50
2018-10-03T02:51:22.771Z,66.30
2018-10-03T02:53:51.251Z,64.10
2018-10-03T02:56:19.810Z,63.70
2018-10-03T02:58:48.407Z,64.30
2018-10-03T03:01:17.000Z,65.10
2018-10-03T03:03:45.555Z,65.30
2018-10-03T03:06:14.091Z,65.60
2018-10-03T03:08:42.829Z,65.10
2018-10-03T03:11:11.379Z,65.00
2018-10-03T03:13:40.220Z,64.50
2018-10-03T03:16:08.769Z,65.00
2018-10-03T03:18:37.184Z,65.20
2018-10-03T03:21:05.593Z,64.40
2018-10-03T03:23:34.053Z,64.30
2018-10-03T03:26:02.413Z,65.10
2018-10-03T03:28:30.797Z,65.80
2018-10-03T03:30:59.219Z,65.60
2018-10-03T03:33:27.640Z,65.40
2018-10-03T03:35:56.048Z,65.60
2018-10-03T03:38:24.462Z,65.60
2018-10-03T03:40:52.848Z,65.70
2018-10-03T03:43:21.217Z,65.60
2018-10-03T03:45:49.657Z,65.90
2018-10-03T03:48:18.308Z,65.60
2018-10-03T03:50:46.735Z,65.80
2018-10-03T03:53:15.180Z,65.60
2018-10-03T03:55:43.614Z,65.80
2018-10-03T03:58:11.904Z,65.70
2018-10-03T04:00:40.347Z,66.30
2018-10-03T04:03:08.684Z,66.30
2018-10-03T04:05:37.064Z,66.10
2018-10-03T04:08:05.386Z,66.30
2018-10-03T04:10:33.709Z,66.40
2018-10-03T04:13:02.008Z,66.60
2018-10-03T04:15:30.437Z,66.20
2018-10-03T04:17:58.847Z,66.20
2018-10-03T04:20:27.350Z,66.00
2018-10-03T04:22:55.730Z,66.30
2018-10-03T04:25:24.272Z,65.00
2018-10-03T04:27:52.707Z,65.10
2018-10-03T04:30:21.197Z,65.20
2018-10-03T04:32:49.651Z,66.30
2018-10-03T04:35:18.080Z,66.80
2018-10-03T04:37:46.395Z,66.60
2018-10-03T04:40:14.946Z,66.40
2018-10-03T04:42:43.352Z,66.40
2018-10-03T04:45:12.093Z,66.80
2018-10-03T04:47:40.472Z,66.50
2018-10-03T04:50:09.013Z,66.50
2018-10-03T04:52:37.430Z,66.00
2018-10-03T04:55:05.929Z,66.80
2018-10-03T04:57:34.327Z,65.60
2018-10-03T05:00:02.653Z,66.00
2018-10-03T05:02:31.112Z,65.00
2018-10-03T05:04:59.497Z,64.80
2018-10-03T05:07:27.881Z,64.50
2018-10-03T05:09:56.259Z,64.60
2018-10-03T05:12:24.583Z,64.00
2018-10-03T05:14:52.965Z,65.20
2018-10-03T05:17:21.256Z,64.50
2018-10-03T05:19:49.660Z,65.60
2018-10-03T05:22:17.987Z,66.30
2018-10-03T05:24:46.445Z,66.60
2018-10-03T05:27:14.848Z,65.90
2018-10-03T05:29:43.308Z,66.10
2018-10-03T05:32:12.109Z,66.40
2018-10-03T05:34:40.427Z,66.50
2018-10-03T05:37:08.963Z,66.50
2018-10-03T05:39:37.328Z,66.20
2018-10-03T05:42:05.883Z,65.70
2018-10-03T05:44:34.739Z,66.50
2018-10-03T05:47:03.398Z,66.90
2018-10-03T05:49:31.726Z,66.80
2018-10-03T05:52:00.116Z,66.60
2018-10-03T05:54:28.640Z,66.90
2018-10-03T05:56:58.203Z,68.10
2018-10-03T05:59:26.547Z,68.00
2018-10-03T06:01:54.952Z,68.20
2018-10-03T06:04:23.452Z,67.80
2018-10-03T06:06:52.431Z,67.80
2018-10-03T06:09:21.212Z,68.40
2018-10-03T06:11:49.888Z,68.70
2018-10-03T06:14:27.067Z,69.30
2018-10-03T06:16:56.248Z,69.60
2018-10-03T06:19:24.660Z,68.60
2018-10-03T06:21:53.360Z,69.30
2018-10-03T06:24:22.039Z,69.70
2018-10-03T06:26:50.372Z,70.20
2018-10-03T06:29:18.788Z,69.80
2018-10-03T06:31:47.284Z,70.30
2018-10-03T06:34:15.943Z,70.60
2018-10-03T06:36:44.300Z,70.60
2018-10-03T06:39:12.886Z,70.80
2018-10-03T06:41:41.439Z,71.20
2018-10-03T06:44:10.427Z,70.80
2018-10-03T06:46:39.117Z,70.90
2018-10-03T06:49:07.528Z,71.60
2018-10-03T06:51:35.831Z,72.40
2018-10-03T06:54:04.664Z,72.60
2018-10-03T06:56:33.252Z,72.30
2018-10-03T06:59:01.720Z,72.60
2018-10-03T07:01:30.046Z,72.70
2018-10-03T07:03:58.674Z,72.50
2018-10-03T07:06:27.163Z,72.00
2018-10-03T07:08:56.098Z,71.20
2018-10-03T07:11:24.628Z,71.40
2018-10-03T07:13:53.356Z,72.50
2018-10-03T07:16:22.147Z,72.10
2018-10-03T07:18:50.459Z,71.50
2018-10-03T07:21:18.815Z,71.90
2018-10-03T07:23:47.488Z,70.50
2018-10-03T07:26:15.828Z,70.00
2018-10-03T07:28:44.199Z,70.00
2018-10-03T07:31:12.887Z,68.60
2018-10-03T07:33:42.172Z,69.00
2018-10-03T07:36:10.562Z,70.00
2018-10-03T07:38:38.983Z,69.70
2018-10-03T07:41:07.524Z,69.40
2018-10-03T07:43:36.144Z,67.30
2018-10-03T07:46:04.792Z,66.40
2018-10-03T07:48:33.076Z,66.00
2018-10-03T07:51:01.421Z,66.40
2018-10-03T07:53:30.140Z,67.30
2018-10-03T07:55:58.708Z,67.40
2018-10-03T07:58:27.383Z,67.60
2018-10-03T08:00:55.725Z,67.60
2018-10-03T08:03:24.186Z,67.30
2018-10-03T08:05:52.831Z,67.40
2018-10-03T08:08:21.568Z,67.30
2018-10-03T08:10:49.936Z,66.40
2018-10-03T08:13:18.364Z,67.50
2018-10-03T08:15:46.799Z,68.40
2018-10-03T08:18:15.461Z,67.60
2018-10-03T08:20:44.131Z,65.50
2018-10-03T08:23:12.660Z,65.00
2018-10-03T08:25:41.426Z,65.90
2018-10-03T08:28:10.097Z,65.70
2018-10-03T08:30:38.436Z,64.00
2018-10-03T08:33:06.927Z,63.60
2018-10-03T08:35:35.685Z,63.50
2018-10-03T08:38:04.351Z,63.90
2018-10-03T08:40:32.908Z,63.80
2018-10-03T08:43:01.728Z,64.40
2018-10-03T08:45:30.210Z,64.20
2018-10-03T08:47:58.656Z,63.00
2018-10-03T08:50:27.149Z,62.90
2018-10-03T08:52:55.569Z,62.50
2018-10-03T08:55:24.132Z,60.70
2018-10-03T08:57:52.905Z,61.20
2018-10-03T09:00:22.021Z,60.70
2018-10-03T09:02:50.513Z,60.50
2018-10-03T09:05:19.280Z,60.30
2018-10-03T09:07:48.197Z,57.90
2018-10-03T09:10:17.082Z,58.00
2018-10-03T09:12:45.580Z,59.20
2018-10-03T09:15:14.360Z,59.70
2018-10-03T09:17:42.815Z,57.50
2018-10-03T09:20:11.540Z,55.80
2018-10-03T09:22:39.900Z,54.90
2018-10-03T09:25:08.720Z,55.50
2018-10-03T09:27:37.424Z,56.80
2018-10-03T09:30:06.201Z,58.00
2018-10-03T09:32:34.651Z,57.50
2018-10-03T09:35:03.396Z,54.50
2018-10-03T09:37:31.748Z,53.20
2018-10-03T09:40:00.203Z,53.30
2018-10-03T09:42:28.913Z,54.40
2018-10-03T09:44:57.369Z,54.40
2018-10-03T09:47:25.859Z,53.20
2018-10-03T09:49:54.416Z,55.00
2018-10-03T09:52:23.244Z,54.40
2018-10-03T09:54:51.948Z,54.80
2018-10-03T09:57:20.627Z,54.90
2018-10-03T09:59:50.248Z,54.50
2018-10-03T10:02:18.662Z,54.10
2018-10-03T10:04:47.297Z,54.40
2018-10-03T10:07:15.690Z,52.00
2018-10-03T10:09:44.432Z,50.40
2018-10-03T10:12:12.975Z,50.90
2018-10-03T10:15:13.129Z,49.40
2018-10-03T10:17:41.711Z,49.30
2018-10-03T10:20:10.143Z,49.30
2018-10-03T10:22:38.621Z,48.00
2018-10-03T10:25:07.059Z,48.30
2018-10-03T10:27:35.748Z,48.20
2018-10-03T10:30:04.440Z,48.30
2018-10-03T10:32:32.924Z,48.20
2018-10-03T10:35:01.327Z,49.00
2018-10-03T10:37:30.112Z,48.90
2018-10-03T10:39:59.314Z,47.70
2018-10-03T10:42:28.248Z,45.70
2018-10-03T10:44:57.181Z,46.50
2018-10-03T10:47:26.280Z,45.20
2018-10-03T10:49:54.896Z,46.20
2018-10-03T10:52:23.959Z,45.90
2018-10-03T10:54:52.647Z,47.10
2018-10-03T10:57:21.143Z,46.70
2018-10-03T10:59:49.797Z,43.70
2018-10-03T11:02:18.871Z,42.90
2018-10-03T11:04:48.000Z,42.70
2018-10-03T11:07:19.477Z,41.60
2018-10-03T11:09:48.532Z,39.50
2018-10-03T11:12:17.695Z,42.20
2018-10-03T11:15:24.195Z,39.20
2018-10-03T11:17:53.460Z,40.70
2018-10-03T11:20:22.697Z,39.00
2018-10-03T11:22:51.388Z,38.20
2018-10-03T11:25:20.145Z,37.70
2018-10-03T11:27:48.560Z,36.40
2018-10-03T11:30:17.200Z,36.00
2018-10-03T11:32:45.535Z,36.50
2018-10-03T11:35:13.993Z,36.20
2018-10-03T11:37:42.408Z,35.80
2018-10-03T11:40:10.695Z,35.10
2018-10-03T11:42:39.076Z,36.00
2018-10-03T11:45:07.565Z,36.00
2018-10-03T11:47:35.879Z,32.40
2018-10-03T11:50:04.321Z,34.90
2018-10-03T11:52:32.694Z,35.10
2018-10-03T11:55:01.209Z,32.90
2018-10-03T11:57:29.699Z,34.60
2018-10-03T11:59:58.448Z,34.20
2018-10-03T12:02:26.921Z,34.90
2018-10-03T12:04:55.328Z,32.50
2018-10-03T12:07:23.659Z,31.80
2018-10-03T12:09:52.092Z,31.70
2018-10-03T12:12:20.564Z,30.80
2018-10-03T12:15:25.672Z,30.60
2018-10-03T12:17:54.396Z,30.50
2018-10-03T12:20:22.800Z,29.70
2018-10-03T12:22:51.287Z,30.30
2018-10-03T12:25:20.259Z,28.70
2018-10-03T12:27:48.589Z,28.20
2018-10-03T12:30:17.816Z,28.20
2018-10-03T12:32:46.620Z,28.20
2018-10-03T12:35:19.667Z,29.60
2018-10-03T12:37:48.139Z,28.60
2018-10-03T12:40:17.088Z,28.10
2018-10-03T12:42:45.871Z,28.20
2018-10-03T12:45:14.973Z,28.20
2018-10-03T12:47:43.356Z,27.70
2018-10-03T12:50:11.839Z,27.50
2018-10-03T12:52:40.417Z,27.80
2018-10-03T12:55:08.735Z,27.00
2018-10-03T12:57:37.423Z,26.90
2018-10-03T13:00:05.928Z,26.60
2018-10-03T13:02:34.274Z,27.80
2018-10-03T13:05:02.600Z,28.00
2018-10-03T13:07:31.284Z,26.20
2018-10-03T13:09:59.744Z,26.20
2018-10-03T13:12:28.279Z,26.60
2018-10-03T13:15:41.126Z,27.50
2018-10-03T13:18:09.608Z,26.70
2018-10-03T13:20:38.012Z,26.90
2018-10-03T13:23:06.372Z,28.00
2018-10-03T13:25:34.736Z,28.80
2018-10-03T13:28:03.192Z,28.10
2018-10-03T13:30:31.714Z,28.30
2018-10-03T13:33:00.409Z,28.40
2018-10-03T13:35:28.763Z,26.10
2018-10-03T13:37:57.181Z,25.80
2018-10-03T13:40:26.057Z,26.80
2018-10-03T13:42:54.755Z,27.00
2018-10-03T13:45:23.144Z,25.80
2018-10-03T13:47:51.644Z,26.40
2018-10-03T13:50:20.025Z,27.00
2018-10-03T13:52:48.644Z,27.00
2018-10-03T13:55:17.737Z,26.80
2018-10-03T13:57:46.271Z,26.60
2018-10-03T14:00:15.196Z,26.30
2018-10-03T14:02:43.595Z,26.90
2018-10-03T14:05:11.990Z,25.80
2018-10-03T14:07:40.664Z,26.40
2018-10-03T14:10:09.052Z,26.50
2018-10-03T14:12:37.679Z,26.20
2018-10-03T14:15:55.233Z,24.80
2018-10-03T14:18:24.117Z,25.10
2018-10-03T14:20:52.797Z,24.90
2018-10-03T14:23:21.113Z,24.90
2018-10-03T14:25:49.888Z,24.90
2018-10-03T14:28:18.456Z,24.60
2018-10-03T14:30:47.446Z,25.30
2018-10-03T14:33:16.100Z,25.50
2018-10-03T14:35:44.447Z,24.80
2018-10-03T14:38:12.962Z,24.80
2018-10-03T14:40:41.324Z,24.60
2018-10-03T14:43:09.963Z,23.70
2018-10-03T14:45:38.372Z,23.90
2018-10-03T14:48:07.367Z,24.80
2018-10-03T14:50:35.908Z,25.60
2018-10-03T14:53:04.373Z,25.50
2018-10-03T14:55:33.019Z,25.30
2018-10-03T14:58:01.818Z,25.70
2018-10-03T15:00:30.472Z,26.10
2018-10-03T15:02:58.820Z,26.80
2018-10-03T15:05:27.264Z,26.80
2018-10-03T15:07:55.775Z,27.30
2018-10-03T15:10:24.919Z,27.50
2018-10-03T15:12:53.887Z,27.70
2018-10-03T15:18:43.910Z,25.00
2018-10-03T15:21:12.719Z,25.80
2018-10-03T15:23:42.134Z,26.00
2018-10-03T15:26:10.900Z,25.70
2018-10-03T15:28:39.931Z,25.20
2018-10-03T15:31:08.544Z,25.10
2018-10-03T15:33:37.386Z,25.90
2018-10-03T15:36:06.213Z,26.80
2018-10-03T15:38:34.495Z,26.20
2018-10-03T15:41:03.040Z,27.70
2018-10-03T15:43:31.721Z,27.50
2018-10-03T15:46:00.522Z,27.20
2018-10-03T15:48:29.148Z,27.10
2018-10-03T15:50:57.531Z,27.50
2018-10-03T15:53:25.904Z,28.20
2018-10-03T15:55:54.664Z,29.20
2018-10-03T15:58:23.556Z,29.70
2018-10-03T16:00:52.000Z,29.30
2018-10-03T16:03:20.317Z,29.70
2018-10-03T16:05:48.675Z,29.20
2018-10-03T16:08:17.032Z,28.80
2018-10-03T16:10:45.490Z,28.80
2018-10-03T16:13:13.899Z,28.70
2018-10-03T16:16:25.175Z,29.10
2018-10-03T16:18:53.567Z,29.50
2018-10-03T16:21:21.892Z,31.20
2018-10-03T16:23:50.296Z,31.00
2018-10-03T16:26:18.760Z,30.60
2018-10-03T16:28:47.093Z,30.90
2018-10-03T16:31:15.544Z,31.10
2018-10-03T16:33:44.419Z,31.70
2018-10-03T16:36:12.739Z,32.00
2018-10-03T16:38:41.349Z,32.30
2018-10-03T16:41:09.772Z,33.00
2018-10-03T16:43:38.141Z,32.90
2018-10-03T16:46:07.217Z,33.30
2018-10-03T16:48:35.668Z,33.50
2018-10-03T16:51:04.140Z,33.90
2018-10-03T16:53:32.514Z,34.20
2018-10-03T16:56:00.908Z,34.20
2018-10-03T16:58:29.284Z,34.50
2018-10-03T17:00:57.705Z,34.60
2018-10-03T17:03:25.951Z,34.70
2018-10-03T17:05:54.352Z,35.40
2018-10-03T17:08:22.744Z,35.80
2018-10-03T17:10:51.008Z,35.70
2018-10-03T17:13:19.428Z,35.50
2018-10-03T17:16:34.075Z,35.10
2018-10-03T17:19:02.405Z,35.90
2018-10-03T17:21:30.841Z,35.50
2018-10-03T17:23:59.277Z,35.10
2018-10-03T17:26:28.025Z,35.00
2018-10-03T17:28:57.037Z,34.60
2018-10-03T17:31:25.900Z,34.50
2018-10-03T17:33:55.003Z,34.30
2018-10-03T17:36:24.241Z,35.10
2018-10-03T17:38:52.955Z,35.70
2018-10-03T17:41:21.724Z,35.90
2018-10-03T17:43:50.398Z,36.30
2018-10-03T17:46:18.914Z,35.60
2018-10-03T17:48:48.136Z,35.80
2018-10-03T17:51:16.635Z,35.70
2018-10-03T17:53:45.944Z,36.20
2018-10-03T17:56:14.439Z,36.20
2018-10-03T17:58:43.594Z,36.50
2018-10-03T18:01:11.967Z,36.70
2018-10-03T18:03:40.299Z,36.70
2018-10-03T18:06:08.959Z,37.30
2018-10-03T18:08:37.423Z,37.30
2018-10-03T18:11:12.971Z,37.20
2018-10-03T18:13:41.777Z,37.20
2018-10-03T18:16:43.162Z,36.30
2018-10-03T18:19:11.753Z,36.60
2018-10-03T18:21:40.246Z,37.10
2018-10-03T18:24:08.966Z,37.10
2018-10-03T18:26:38.625Z,37.30
2018-10-03T18:29:07.753Z,37.00
2018-10-03T18:31:36.911Z,37.00
2018-10-03T18:34:06.071Z,37.00
2018-10-03T18:36:35.304Z,37.50
2018-10-03T18:39:06.437Z,37.40
2018-10-03T18:41:35.723Z,37.60
2018-10-03T18:44:05.352Z,38.30
2018-10-03T18:46:34.824Z,39.00
2018-10-03T18:49:05.035Z,39.70
2018-10-03T18:51:34.407Z,39.70
2018-10-03T18:54:04.047Z,40.50
2018-10-03T18:56:33.287Z,40.20
2018-10-03T18:59:02.462Z,40.80
2018-10-03T19:01:31.774Z,40.30
2018-10-03T19:04:01.078Z,40.20
2018-10-03T19:06:30.244Z,40.10
2018-10-03T19:08:59.515Z,39.80
2018-10-03T19:11:28.749Z,39.70
2018-10-03T19:13:57.922Z,39.60
2018-10-03T19:16:46.851Z,39.60
2018-10-03T19:19:16.094Z,40.30
2018-10-03T19:21:45.270Z,40.90
2018-10-03T19:24:14.440Z,41.00
2018-10-03T19:26:43.668Z,41.40
2018-10-03T19:29:12.692Z,41.20
2018-10-03T19:31:41.789Z,41.40
2018-10-03T19:34:10.833Z,41.50
2018-10-03T19:36:39.995Z,41.70
2018-10-03T19:39:09.407Z,41.80
2018-10-03T19:41:38.558Z,41.90
2018-10-03T19:44:07.888Z,42.00
2018-10-03T19:46:36.856Z,42.00
2018-10-03T19:49:06.108Z,42.00
2018-10-03T19:51:35.706Z,41.70
2018-10-03T19:54:04.793Z,41.40
2018-10-03T19:56:33.892Z,41.60
2018-10-03T19:59:03.077Z,41.60
2018-10-03T20:01:32.248Z,41.90
2018-10-03T20:04:01.469Z,42.00
2018-10-03T20:06:30.593Z,42.50
2018-10-03T20:09:00.732Z,42.30
2018-10-03T20:11:29.916Z,42.70
2018-10-03T20:13:59.389Z,42.80
2018-10-03T20:16:48.852Z,42.50
2018-10-03T20:19:17.900Z,43.10
2018-10-03T20:21:46.835Z,42.50
2018-10-03T20:24:15.848Z,42.60
2018-10-03T20:30:17.416Z,41.60
2018-10-03T20:32:46.135Z,41.80
2018-10-03T20:35:14.600Z,42.10
2018-10-03T20:37:43.244Z,42.30
2018-10-03T20:40:11.870Z,42.00
2018-10-03T20:42:40.340Z,41.90
2018-10-03T20:45:08.842Z,40.80
2018-10-03T20:47:37.137Z,40.70
2018-10-03T20:50:05.659Z,39.80
2018-10-03T20:52:34.072Z,39.70
2018-10-03T20:55:02.472Z,40.40
2018-10-03T20:57:31.033Z,41.00
2018-10-03T20:59:59.500Z,41.60
2018-10-03T21:02:27.949Z,41.40
2018-10-03T21:04:56.564Z,40.90
2018-10-03T21:07:25.006Z,41.90
2018-10-03T21:09:53.460Z,43.10
2018-10-03T21:12:22.040Z,42.80
2018-10-03T21:15:34.710Z,41.50
2018-10-03T21:18:03.112Z,41.10
2018-10-03T21:20:31.497Z,41.40
2018-10-03T21:22:59.876Z,42.20
2018-10-03T21:25:28.208Z,43.00
2018-10-03T21:27:56.543Z,43.90
2018-10-03T21:30:25.056Z,44.50
2018-10-03T21:32:53.395Z,44.60
2018-10-03T21:35:21.792Z,44.80
2018-10-03T21:37:50.315Z,44.30
2018-10-03T21:40:18.689Z,43.50
2018-10-03T21:42:47.108Z,42.60
2018-10-03T21:45:16.230Z,42.80
2018-10-03T21:47:44.713Z,41.90
2018-10-03T21:50:13.705Z,41.90
2018-10-03T21:52:42.099Z,41.60
2018-10-03T21:55:10.533Z,41.50
2018-10-03T21:57:38.875Z,40.80
2018-10-03T22:00:08.164Z,40.70
2018-10-03T22:02:36.639Z,41.10
2018-10-03T22:05:07.645Z,41.10
2018-10-03T22:07:36.200Z,41.10
2018-10-03T22:10:04.777Z,40.90
2018-10-03T22:12:33.179Z,41.60
2018-10-03T22:15:01.616Z,41.00
2018-10-03T22:17:34.480Z,41.10
2018-10-03T22:20:02.917Z,41.40
2018-10-03T22:22:31.410Z,40.90
2018-10-03T22:24:59.952Z,41.00
2018-10-03T22:27:28.464Z,40.90
2018-10-03T22:29:57.050Z,40.70
2018-10-03T22:32:25.500Z,40.70
2018-10-03T22:34:54.229Z,40.80
2018-10-03T22:37:22.703Z,40.60
2018-10-03T22:39:51.196Z,41.30
2018-10-03T22:42:19.692Z,41.80
2018-10-03T22:44:48.049Z,41.30
2018-10-03T22:47:16.412Z,41.60
2018-10-03T22:49:44.867Z,41.90
2018-10-03T22:52:13.325Z,41.50
2018-10-03T22:54:41.764Z,41.70
2018-10-03T22:57:10.303Z,41.50
2018-10-03T22:59:38.694Z,42.10
2018-10-03T23:02:07.701Z,41.80
2018-10-03T23:04:36.104Z,41.70
2018-10-03T23:07:04.431Z,41.50
2018-10-03T23:09:32.868Z,41.60
2018-10-03T23:12:01.175Z,41.50
2018-10-03T23:14:29.582Z,41.90
2018-10-03T23:16:58.452Z,41.60
2018-10-03T23:19:26.799Z,41.20
2018-10-03T23:21:55.167Z,39.90
2018-10-03T23:24:23.604Z,39.80
2018-10-03T23:26:52.032Z,40.20
2018-10-03T23:29:20.442Z,39.70
2018-10-03T23:31:48.880Z,38.70
2018-10-03T23:34:17.332Z,37.90
2018-10-03T23:36:45.716Z,37.90
2018-10-03T23:39:14.129Z,38.30
2018-10-03T23:41:42.504Z,38.20
2018-10-03T23:44:11.329Z,38.40
2018-10-03T23:46:39.712Z,38.80
2018-10-03T23:49:08.055Z,38.80
2018-10-03T23:51:36.503Z,38.80
2018-10-03T23:54:04.876Z,39.00
2018-10-03T23:56:33.223Z,39.30
2018-10-03T23:59:01.682Z,39.50
